Nearby METAR Reports

 

KKLS - Kelso Longveiw, Washington, USA
Distance from station: ESE 7mi, 11km
Updated: 2017-10-20 05:30
Rain, Mist, Overcast
Rain, Mist, Overcast
 Wind from varies
Wind: varies 3 mph , 6 km/h
Temperature: 48°F , 9°C
Dew Point: 46°F , 8°C
Humidity: 94%
Barometer: 1005.8 hPa
Summary: Rain, Mist
Clouds: Overcast
Visibility: 6 miles , 10 km
Cloud details: Mostly cloudy 800 ft
Mostly cloudy 3300 ft
Overcast 4400 ft
2017/10/20 12:30 KKLS 201230Z AUTO VRB03KT 6SM RA BR BKN008 BKN033 OVC044 09/08 A2970 RMK AO2 RAB13 P0006
KSPB - Scappoose, Oregon, USA
Distance from station: SSE 29mi, 46km
Updated: 2017-10-20 05:41
Overcast
Overcast
 Wind from SE
Wind: SE 5 mph , 7 km/h
Temperature: 48°F , 9°C
Wind Chill: 46°F , 8°C
Dew Point: 46°F , 8°C
Humidity: 94%
Barometer: 1005.8 hPa
Clouds: Overcast
Visibility: 10 miles , 16 km
Cloud details: Mostly cloudy 1400 ft
Overcast 6500 ft
2017/10/20 12:41 KSPB 201241Z AUTO 14004KT 10SM BKN014 OVC065 09/08 A2970 RMK AO2 RAE1159 P0000 T00890078
 
KCLS - Chehalis Central, Washington, USA
Distance from station: N 36mi, 58km
Updated: 2017-10-20 05:35
Mostly cloudy
Mostly cloudy
 Wind from SSW
Wind: SSW 6 mph , 9 km/h
Temperature: 46°F , 8°C
Wind Chill: 43°F , 6°C
Dew Point: 46°F , 8°C
Humidity: 100%
Barometer: 1004.1 hPa
Clouds: Mostly cloudy
Visibility: 10 miles , 16 km
Cloud details: Few Clouds 800 ft
Partly cloudy 6500 ft
Mostly cloudy 8500 ft
2017/10/20 12:35 KCLS 201235Z AUTO 21005KT 10SM FEW008 SCT065 BKN085 08/08 A2965 RMK AO2
KAST - Astoria, Oregon, USA
Distance from station: W 41mi, 66km
Updated: 2017-10-20 04:55
Rain, Overcast
Rain, Overcast
 Wind from SW
Wind: SW 7 mph , 11 km/h
Temperature: 48°F , 9°C
Wind Chill: 45°F , 7°C
Dew Point: 45°F , 7°C
Humidity: 87%
Barometer: 1004.1 hPa
Summary: Rain
Clouds: Overcast
Visibility: 5 miles , 8 km
Cloud details: Overcast 4600 ft
2017/10/20 11:55 KAST 201155Z AUTO 22006KT 5SM RA OVC046 09/07 A2965 RMK AO2 SLP039 P0006 60006 70074 T00940067 10106 20078 53018
 
KVUO - Vancouver, Washington, USA
Distance from station: SSE 42mi, 68km
Updated: 2017-10-20 05:37
Overcast
Overcast
 Wind from varies
Wind: varies 5 mph , 7 km/h
Temperature: 50°F , 10°C
Wind Chill: 48°F , 9°C
Dew Point: 48°F , 9°C
Humidity: 94%
Barometer: 1006.1 hPa
Clouds: Overcast
Visibility: 10 miles , 16 km
Cloud details: Mostly cloudy 1300 ft
Overcast 4900 ft
2017/10/20 12:37 KVUO 201237Z AUTO VRB04KT 10SM BKN013 OVC049 10/09 A2971 RMK AO2 RAB24E34 P0000 T01000089
KHIO - Hillsboro/Portld, Oregon, USA
Distance from station: S 43mi, 69km
Updated: 2017-10-20 04:53
Overcast
Overcast
 Wind from calm
Wind: Calm
Temperature: 48°F , 9°C
Dew Point: 46°F , 8°C
Humidity: 94%
Barometer: 1005.4 hPa
Clouds: Overcast
Visibility: 10 miles , 16 km
Cloud details: Mostly cloudy 4300 ft
Mostly cloudy 5000 ft
Overcast 7500 ft
2017/10/20 11:53 KHIO 201153Z AUTO 00000KT 10SM BKN043 BKN050 OVC075 09/08 A2969 RMK AO2 RAB15E36 SLP053 P0000 60002 70066 T00890078 10100 20072 53021
 
KPDX - Portland, Oregon, USA
Distance from station: SSE 44mi, 70km
Updated: 2017-10-20 04:53
Light rain, Overcast
Light rain, Overcast
 Wind from SSW
Wind: SSW 12 mph , 19 km/h
Temperature: 48°F , 9°C
Wind Chill: 43°F , 6°C
Dew Point: 46°F , 8°C
Humidity: 94%
Barometer: 1005.4 hPa
Summary: Light rain
Clouds: Overcast
Visibility: 10 miles , 16 km
Cloud details: Few Clouds 2000 ft
Mostly cloudy 5000 ft
Overcast 6500 ft
2017/10/20 11:53 KPDX 201153Z 20010KT 10SM -RA FEW020 BKN050 OVC065 09/08 A2969 RMK AO2 RAB44 SLP053 P0000 60000 70089 T00940078 10100 20094 53018